createdAt,value
2022-08-31T00:24:35.326Z,100066.19
2022-08-31T00:25:42.254Z,100057.46
2022-08-31T00:26:46.073Z,100058.80
2022-08-31T00:27:50.839Z,100058.13
2022-08-31T00:28:54.619Z,100057.80
2022-08-31T00:29:58.504Z,100062.17
2022-08-31T00:31:02.633Z,100067.41
2022-08-31T00:32:06.595Z,100062.19
2022-08-31T00:33:13.227Z,100057.46
2022-08-31T00:34:17.077Z,100061.00
2022-08-31T00:35:20.614Z,100060.66
2022-08-31T00:36:25.859Z,100058.80
2022-08-31T00:37:29.773Z,100058.13
2022-08-31T00:38:35.199Z,100053.75
2022-08-31T00:39:38.000Z,100058.30
2022-08-31T00:40:45.366Z,100062.86
2022-08-31T00:41:52.026Z,100060.84
2022-08-31T00:42:57.242Z,100057.34
2022-08-31T00:44:05.107Z,100057.03
2022-08-31T00:45:10.492Z,100055.34
2022-08-31T00:46:18.886Z,100054.16
2022-08-31T00:47:26.070Z,100063.64
2022-08-31T00:48:29.723Z,100054.03
2022-08-31T00:49:41.634Z,100058.58
2022-08-31T00:50:48.185Z,100062.08
2022-08-31T00:52:04.196Z,100063.45
2022-08-31T00:53:07.980Z,100068.84
2022-08-31T00:54:15.381Z,100060.56
2022-08-31T00:55:26.286Z,100067.49
2022-08-31T00:56:32.958Z,100061.59
2022-08-31T00:57:42.815Z,100063.27
2022-08-31T00:58:48.900Z,100056.54
2022-08-31T00:59:52.227Z,100063.25
2022-08-31T01:00:55.887Z,100053.98
2022-08-31T01:01:59.903Z,100056.89
2022-08-31T01:03:08.563Z,100058.23
2022-08-31T01:04:12.715Z,100050.66
2022-08-31T01:05:18.735Z,100057.39
2022-08-31T01:06:24.445Z,100052.17
2022-08-31T01:07:31.560Z,100049.14
2022-08-31T01:08:39.614Z,100052.48
2022-08-31T01:09:55.903Z,100052.48
2022-08-31T01:10:56.657Z,100055.17
2022-08-31T01:12:00.512Z,100050.45
2022-08-31T01:13:06.445Z,100059.05
2022-08-31T01:14:11.635Z,100056.22
2022-08-31T01:15:18.973Z,100055.53
2022-08-31T01:16:32.449Z,100057.72
2022-08-31T01:17:38.251Z,100055.85
2022-08-31T01:18:44.623Z,100052.48
2022-08-31T01:19:54.853Z,100049.12
2022-08-31T01:21:22.796Z,100054.53
2022-08-31T01:23:02.860Z,100052.00
2022-08-31T01:24:08.816Z,100057.73
2022-08-31T01:25:14.171Z,100050.82
2022-08-31T01:26:22.133Z,100051.16
2022-08-31T01:27:29.592Z,100058.74
2022-08-31T01:28:32.387Z,100059.41
2022-08-31T01:29:36.906Z,100058.91
2022-08-31T01:30:51.651Z,100063.25
2022-08-31T01:31:56.474Z,100056.69
2022-08-31T01:32:59.909Z,100063.09
2022-08-31T01:34:06.424Z,100060.08
2022-08-31T01:36:27.228Z,100052.67
2022-08-31T01:37:32.781Z,100063.95
2022-08-31T01:38:38.376Z,100056.70
2022-08-31T01:39:41.809Z,100056.03
2022-08-31T01:41:03.200Z,100056.53
2022-08-31T01:42:11.238Z,100059.75
2022-08-31T01:43:15.065Z,100048.97
2022-08-31T01:44:21.454Z,100055.53
2022-08-31T01:45:29.909Z,100042.55
2022-08-31T01:46:34.955Z,100049.44
2022-08-31T01:47:44.141Z,100049.12
2022-08-31T01:48:48.981Z,100054.34
2022-08-31T01:49:53.231Z,100050.65
2022-08-31T01:51:04.071Z,100046.75
2022-08-31T01:52:08.000Z,100055.67
2022-08-31T01:53:11.540Z,100050.30
2022-08-31T01:54:15.907Z,100052.14
2022-08-31T01:55:20.074Z,100054.34
2022-08-31T01:56:30.018Z,100048.62
2022-08-31T01:57:36.617Z,100055.70
2022-08-31T01:59:00.000Z,100053.83
2022-08-31T02:00:19.072Z,100052.14
2022-08-31T02:01:33.510Z,100049.44
2022-08-31T02:02:35.840Z,100047.79
2022-08-31T02:04:56.632Z,100050.98
2022-08-31T02:07:04.857Z,100042.39
2022-08-31T02:08:11.430Z,100046.61
2022-08-31T02:09:16.779Z,100045.59
2022-08-31T02:10:20.196Z,100044.59
2022-08-31T02:11:23.993Z,100042.72
2022-08-31T02:12:28.649Z,100041.55
2022-08-31T02:13:34.109Z,100041.89
2022-08-31T02:14:37.677Z,100040.53
2022-08-31T02:15:41.357Z,100036.34
2022-08-31T02:16:46.903Z,100038.36
2022-08-31T02:17:53.339Z,100036.98
2022-08-31T02:18:57.317Z,100035.97
2022-08-31T02:20:01.674Z,100029.94
2022-08-31T02:21:07.065Z,100028.89
2022-08-31T02:23:27.674Z,100034.81
2022-08-31T02:24:33.350Z,100035.12
2022-08-31T02:25:37.236Z,100031.42
2022-08-31T02:26:42.134Z,100030.42
2022-08-31T02:27:47.127Z,100031.11
2022-08-31T02:28:50.995Z,100030.94
2022-08-31T02:29:55.048Z,100027.56
2022-08-31T02:30:58.831Z,100025.55
2022-08-31T02:32:02.277Z,100024.03
2022-08-31T02:33:06.728Z,100029.73
2022-08-31T02:34:11.024Z,100031.62
2022-08-31T02:35:18.085Z,100034.97
2022-08-31T02:36:23.253Z,100035.62
2022-08-31T02:37:28.119Z,100022.83
2022-08-31T02:38:36.679Z,100024.03
2022-08-31T02:39:41.669Z,100027.37
2022-08-31T02:40:47.161Z,100032.09
2022-08-31T02:41:50.744Z,100024.53
2022-08-31T02:42:55.115Z,100028.72
2022-08-31T02:44:00.462Z,100028.04
2022-08-31T02:45:07.256Z,100032.42
2022-08-31T02:46:11.282Z,100041.34
2022-08-31T02:47:17.311Z,100023.50
2022-08-31T02:48:25.771Z,100039.50
2022-08-31T02:49:29.465Z,100037.28
2022-08-31T02:50:39.890Z,100034.27
2022-08-31T02:51:46.141Z,100031.06
2022-08-31T02:52:51.318Z,100033.20
2022-08-31T02:53:59.422Z,100032.91
2022-08-31T02:55:03.771Z,100046.21
2022-08-31T02:56:08.539Z,100028.89
2022-08-31T02:57:13.066Z,100032.26
2022-08-31T02:58:20.683Z,100032.91
2022-08-31T02:59:22.665Z,100032.74
2022-08-31T03:00:25.497Z,100034.59
2022-08-31T03:01:28.600Z,100029.89
2022-08-31T03:02:32.818Z,100027.88
2022-08-31T03:03:40.511Z,100032.20
2022-08-31T03:04:46.086Z,100028.89
2022-08-31T03:05:51.393Z,100023.82
2022-08-31T03:06:55.421Z,100033.59
2022-08-31T03:07:59.151Z,100025.18
2022-08-31T03:09:04.296Z,100032.42
2022-08-31T03:10:10.486Z,100028.39
2022-08-31T03:11:14.834Z,100029.72
2022-08-31T03:12:20.553Z,100024.34
2022-08-31T03:13:23.980Z,100024.02
2022-08-31T03:14:27.829Z,100033.45
2022-08-31T03:15:32.062Z,100025.86
2022-08-31T03:16:42.109Z,100027.06
2022-08-31T03:17:46.463Z,100031.08
2022-08-31T03:18:53.133Z,100032.60
2022-08-31T03:20:01.244Z,100034.13
2022-08-31T03:21:05.059Z,100035.48
2022-08-31T03:22:08.657Z,100031.27
2022-08-31T03:23:11.763Z,100031.95
2022-08-31T03:24:16.621Z,100030.27
2022-08-31T03:25:21.191Z,100035.64
2022-08-31T03:26:31.292Z,100042.72
2022-08-31T03:27:38.043Z,100037.00
2022-08-31T03:28:41.998Z,100039.20
2022-08-31T03:29:56.816Z,100044.06
2022-08-31T03:31:01.942Z,100042.73
2022-08-31T03:32:05.341Z,100042.40
2022-08-31T03:33:10.434Z,100042.02
2022-08-31T03:34:16.037Z,100042.38
2022-08-31T03:35:20.341Z,100037.32
2022-08-31T03:36:25.612Z,100049.59
2022-08-31T03:37:32.190Z,100042.35
2022-08-31T03:38:35.702Z,100039.82
2022-08-31T03:39:38.773Z,100034.59
2022-08-31T03:40:42.849Z,100044.88
2022-08-31T03:41:46.560Z,100049.42
2022-08-31T03:42:49.778Z,100034.59
2022-08-31T03:43:55.642Z,100040.50
2022-08-31T03:44:59.139Z,100042.35
2022-08-31T03:46:11.937Z,100043.22
2022-08-31T03:47:11.713Z,100042.56
2022-08-31T03:48:17.316Z,100039.53
2022-08-31T03:49:22.466Z,100037.51
2022-08-31T03:50:39.859Z,100038.36
2022-08-31T03:51:46.084Z,100039.88
2022-08-31T03:53:57.282Z,100036.83
2022-08-31T03:55:05.900Z,100044.05
2022-08-31T03:56:12.429Z,100045.42
2022-08-31T03:57:17.599Z,100043.73
2022-08-31T03:58:21.293Z,100044.41
2022-08-31T03:59:25.611Z,100042.57
2022-08-31T04:00:42.515Z,100043.23
2022-08-31T04:01:48.066Z,100045.77
2022-08-31T04:03:10.015Z,100044.06
2022-08-31T04:04:15.438Z,100043.23
2022-08-31T04:05:23.481Z,100043.06
2022-08-31T04:06:44.837Z,100050.63
2022-08-31T04:08:08.156Z,100047.43
2022-08-31T04:10:47.623Z,100040.67
2022-08-31T04:12:10.181Z,100043.22
2022-08-31T04:13:19.164Z,100047.27
2022-08-31T04:14:33.577Z,100049.63
2022-08-31T04:15:59.550Z,100049.45
2022-08-31T04:17:17.525Z,100049.12
2022-08-31T04:18:22.279Z,100050.30
2022-08-31T04:19:26.137Z,100050.14
2022-08-31T04:20:40.224Z,100047.78
2022-08-31T04:21:49.354Z,100050.13
2022-08-31T04:24:05.611Z,100049.12
2022-08-31T04:25:09.717Z,100053.33
2022-08-31T04:26:20.820Z,100047.78
2022-08-31T04:27:24.722Z,100057.22
2022-08-31T04:28:28.819Z,100052.33
2022-08-31T04:29:32.641Z,100052.83
2022-08-31T04:30:41.274Z,100048.12
2022-08-31T04:31:45.353Z,100049.98
2022-08-31T04:32:49.425Z,100055.01
2022-08-31T04:33:53.792Z,100054.87
2022-08-31T04:34:58.991Z,100051.16
2022-08-31T04:36:09.729Z,100052.14
2022-08-31T04:37:16.456Z,100054.47
2022-08-31T04:38:19.168Z,100053.63
2022-08-31T04:39:24.114Z,100063.06
2022-08-31T04:40:29.099Z,100056.79
2022-08-31T04:41:37.201Z,100052.22
2022-08-31T04:42:43.104Z,100059.11
2022-08-31T04:43:51.846Z,100053.36
2022-08-31T04:44:55.688Z,100051.16
2022-08-31T04:46:02.282Z,100050.48
2022-08-31T04:47:07.100Z,100048.64
2022-08-31T04:48:10.972Z,100044.36
2022-08-31T04:49:15.553Z,100051.94
2022-08-31T04:50:23.420Z,100051.45
2022-08-31T04:51:44.218Z,100056.30
2022-08-31T04:53:03.865Z,100050.70
2022-08-31T04:54:00.876Z,100055.27
2022-08-31T04:55:07.772Z,100057.91
2022-08-31T04:56:20.476Z,100053.43
2022-08-31T04:57:24.443Z,100051.89
2022-08-31T04:58:27.069Z,100050.81
2022-08-31T04:59:31.286Z,100057.46
2022-08-31T05:00:45.323Z,100051.17
2022-08-31T05:01:50.906Z,100058.83
2022-08-31T05:03:15.391Z,100063.38
2022-08-31T05:04:23.546Z,100061.95
2022-08-31T05:05:28.669Z,100068.73
2022-08-31T05:06:35.233Z,100072.82
2022-08-31T05:07:37.947Z,100076.56
2022-08-31T05:08:44.483Z,100065.61
2022-08-31T05:09:50.416Z,100072.03
2022-08-31T05:10:55.176Z,100074.22
2022-08-31T05:11:58.288Z,100077.78
2022-08-31T05:13:02.872Z,100073.66
2022-08-31T05:14:08.733Z,100066.08
2022-08-31T05:15:13.998Z,100078.84
2022-08-31T05:16:19.839Z,100071.93
2022-08-31T05:17:23.869Z,100067.63
2022-08-31T05:18:28.068Z,100070.78
2022-08-31T05:19:40.995Z,100070.89
2022-08-31T05:20:43.050Z,100073.05
2022-08-31T05:21:51.114Z,100084.48
2022-08-31T05:22:58.250Z,100072.53
2022-08-31T05:24:11.623Z,100070.57
2022-08-31T05:25:16.779Z,100069.73
2022-08-31T05:26:26.693Z,100074.31
2022-08-31T05:27:30.316Z,100072.57
2022-08-31T05:28:34.915Z,100072.57
2022-08-31T05:29:38.534Z,100074.31
2022-08-31T05:31:01.205Z,100069.41
2022-08-31T05:32:10.598Z,100070.80
2022-08-31T05:33:16.407Z,100071.23
2022-08-31T05:34:21.848Z,100074.44
2022-08-31T05:35:26.186Z,100078.23
2022-08-31T05:36:35.193Z,100077.48
2022-08-31T05:37:36.270Z,100071.20
2022-08-31T05:38:40.927Z,100070.80
2022-08-31T05:39:46.574Z,100076.03
2022-08-31T05:40:56.353Z,100076.67
2022-08-31T05:41:59.624Z,100081.29
2022-08-31T05:43:03.217Z,100078.83
2022-08-31T05:44:12.162Z,100078.55
2022-08-31T05:45:19.678Z,100077.45
2022-08-31T05:46:29.201Z,100077.64
2022-08-31T05:47:34.029Z,100077.64
2022-08-31T05:48:38.895Z,100069.58
2022-08-31T05:49:45.219Z,100068.74
2022-08-31T05:50:50.923Z,100079.35
2022-08-31T05:51:57.800Z,100083.11
2022-08-31T05:53:03.291Z,100083.91
2022-08-31T05:54:08.472Z,100084.30
2022-08-31T05:55:16.520Z,100085.89
2022-08-31T05:56:28.604Z,100082.79
2022-08-31T05:57:33.346Z,100081.29
2022-08-31T05:58:39.133Z,100081.64
2022-08-31T05:59:42.498Z,100074.35
2022-08-31T06:00:47.251Z,100070.98
2022-08-31T06:01:53.163Z,100081.13
2022-08-31T06:03:03.313Z,100087.94
2022-08-31T06:04:09.082Z,100091.02
2022-08-31T06:05:16.269Z,100089.34
2022-08-31T06:06:22.859Z,100082.38
2022-08-31T06:07:26.476Z,100085.54
2022-08-31T06:08:33.535Z,100092.75
2022-08-31T06:09:39.546Z,100085.77
2022-08-31T06:10:48.322Z,100094.41
2022-08-31T06:11:55.141Z,100091.69
2022-08-31T06:12:59.193Z,100087.92
2022-08-31T06:14:06.194Z,100093.42
2022-08-31T06:15:13.931Z,100092.17
2022-08-31T06:16:21.618Z,100089.44
2022-08-31T06:17:29.231Z,100084.80
2022-08-31T06:18:32.965Z,100095.13
2022-08-31T06:19:41.044Z,100088.37
2022-08-31T06:20:45.868Z,100092.05
2022-08-31T06:21:51.548Z,100084.08
2022-08-31T06:22:56.676Z,100096.97
2022-08-31T06:24:04.005Z,100094.30
2022-08-31T06:25:10.705Z,100094.30
2022-08-31T06:26:17.051Z,100088.22
2022-08-31T06:27:20.957Z,100093.64
2022-08-31T06:28:26.490Z,100091.83
2022-08-31T06:54:29.126Z,100129.21
2022-08-31T06:55:36.062Z,100128.00
2022-08-31T06:56:59.919Z,100123.91
2022-08-31T06:58:04.559Z,100130.96
2022-08-31T06:59:19.312Z,100133.18
2022-08-31T07:00:41.823Z,100136.74
2022-08-31T07:01:48.684Z,100139.41
2022-08-31T07:02:57.595Z,100146.64
2022-08-31T07:04:06.061Z,100154.91
2022-08-31T07:05:15.064Z,100161.41
2022-08-31T07:06:21.620Z,100174.25
2022-08-31T07:07:32.363Z,100185.02
2022-08-31T07:08:36.813Z,100188.73
2022-08-31T07:09:45.538Z,100185.50
2022-08-31T07:10:57.390Z,100199.92
2022-08-31T07:12:03.209Z,100186.84
2022-08-31T07:13:08.723Z,100187.45
2022-08-31T07:14:16.720Z,100188.12
2022-08-31T07:15:20.331Z,100189.64
2022-08-31T07:16:27.217Z,100202.19
2022-08-31T07:17:33.748Z,100209.83
2022-08-31T07:18:40.384Z,100204.28
2022-08-31T07:19:45.030Z,100212.56
2022-08-31T07:20:50.240Z,100207.05
2022-08-31T07:21:58.313Z,100213.64
2022-08-31T07:23:01.983Z,100214.52
2022-08-31T07:24:07.937Z,100227.09
2022-08-31T07:25:15.719Z,100217.92
2022-08-31T07:26:26.581Z,100215.20
2022-08-31T07:27:30.323Z,100225.98
2022-08-31T07:28:43.713Z,100215.97
2022-08-31T07:29:50.841Z,100209.22
2022-08-31T07:30:55.341Z,100207.80
2022-08-31T07:32:00.357Z,100208.78
2022-08-31T07:33:06.023Z,100211.69
2022-08-31T07:34:17.829Z,100218.86
2022-08-31T07:35:23.508Z,100216.27
2022-08-31T07:36:32.754Z,100217.27
2022-08-31T07:37:57.016Z,100216.83
2022-08-31T07:39:24.188Z,100223.87
2022-08-31T07:40:47.809Z,100220.24
2022-08-31T07:42:11.739Z,100222.78
2022-08-31T07:43:16.754Z,100219.41
2022-08-31T07:44:24.790Z,100212.56
2022-08-31T07:45:37.723Z,100210.05
2022-08-31T07:46:41.509Z,100201.55
2022-08-31T07:47:48.018Z,100191.41
2022-08-31T07:48:53.194Z,100187.52
2022-08-31T07:50:01.897Z,100183.34
2022-08-31T07:52:29.919Z,100186.86
2022-08-31T07:53:40.114Z,100193.19
2022-08-31T07:54:59.075Z,100189.16
2022-08-31T07:56:04.851Z,100184.50
2022-08-31T07:57:18.257Z,100179.72
2022-08-31T07:58:23.617Z,100178.14
2022-08-31T07:59:26.884Z,100181.53
2022-08-31T08:00:38.047Z,100175.87
2022-08-31T08:01:49.057Z,100188.19
2022-08-31T08:02:57.626Z,100198.14
2022-08-31T08:04:05.078Z,100188.22
2022-08-31T08:05:29.914Z,100190.76
2022-08-31T08:06:36.555Z,100178.63
2022-08-31T08:07:54.707Z,100164.42
2022-08-31T08:09:24.180Z,100172.79
2022-08-31T08:10:33.447Z,100176.93
2022-08-31T08:12:01.206Z,100177.72
2022-08-31T08:13:23.939Z,100167.91
2022-08-31T08:14:33.724Z,100174.87
2022-08-31T08:15:40.572Z,100171.34
2022-08-31T08:18:10.411Z,100160.59
2022-08-31T08:19:16.742Z,100170.85
2022-08-31T08:20:34.573Z,100164.19
2022-08-31T08:21:29.802Z,100154.36
2022-08-31T08:22:54.268Z,100160.18
2022-08-31T08:23:48.714Z,100157.44
2022-08-31T08:25:03.018Z,100159.09
2022-08-31T08:26:21.565Z,100152.55
2022-08-31T08:27:40.537Z,100161.48
2022-08-31T08:29:11.108Z,100159.13
2022-08-31T08:30:18.661Z,100152.61
2022-08-31T08:31:27.827Z,100151.20
2022-08-31T08:32:35.745Z,100156.90
2022-08-31T08:33:41.005Z,100155.73
2022-08-31T08:34:46.539Z,100145.09
2022-08-31T08:35:59.360Z,100143.97
2022-08-31T08:37:05.257Z,100143.53
2022-08-31T08:38:09.568Z,100149.22
2022-08-31T08:40:40.050Z,100142.86
2022-08-31T08:41:48.559Z,100146.77
2022-08-31T08:42:54.422Z,100137.03
2022-08-31T08:44:02.148Z,100144.88
2022-08-31T08:45:09.110Z,100135.97
2022-08-31T08:46:33.941Z,100139.92
2022-08-31T08:47:24.016Z,100121.67
2022-08-31T08:48:34.551Z,100133.60
2022-08-31T08:49:54.866Z,100133.45
2022-08-31T08:51:07.578Z,100133.45
2022-08-31T08:52:36.921Z,100124.34
2022-08-31T08:53:44.700Z,100121.53
2022-08-31T08:55:09.035Z,100115.94
2022-08-31T08:56:32.306Z,100114.69
2022-08-31T08:57:26.627Z,100117.00
2022-08-31T08:58:33.132Z,100124.34
2022-08-31T08:59:37.795Z,100126.33
2022-08-31T09:00:44.743Z,100127.64
2022-08-31T09:01:54.401Z,100120.33
2022-08-31T09:03:28.049Z,100128.30
2022-08-31T09:04:47.944Z,100126.75
2022-08-31T09:05:57.854Z,100126.23
2022-08-31T09:07:08.671Z,100122.34
2022-08-31T09:08:31.662Z,100120.58
2022-08-31T09:09:57.249Z,100119.91
2022-08-31T09:11:12.104Z,100119.09
2022-08-31T09:12:40.144Z,100121.46
2022-08-31T09:14:25.011Z,100125.07
2022-08-31T09:15:52.288Z,100112.91
2022-08-31T09:17:06.486Z,100106.04
2022-08-31T09:18:13.734Z,100104.48
2022-08-31T09:19:22.461Z,100106.85
2022-08-31T09:20:29.872Z,100105.41
2022-08-31T09:21:58.509Z,100104.73
2022-08-31T09:23:04.700Z,100099.56
2022-08-31T09:24:12.280Z,100103.94
2022-08-31T09:27:03.811Z,100096.30
2022-08-31T09:28:15.200Z,100096.05
2022-08-31T09:29:29.059Z,100092.91
2022-08-31T09:30:41.294Z,100096.27
2022-08-31T09:31:46.347Z,100101.28
2022-08-31T09:32:57.083Z,100103.95
2022-08-31T09:34:01.219Z,100096.07
2022-08-31T09:35:11.986Z,100096.86
2022-08-31T09:36:24.071Z,100103.56
2022-08-31T09:37:37.979Z,100095.45
2022-08-31T09:38:42.685Z,100099.72
2022-08-31T09:39:49.274Z,100089.26
2022-08-31T09:40:54.156Z,100099.93
2022-08-31T09:42:04.388Z,100086.77
2022-08-31T09:43:17.774Z,100094.73
2022-08-31T09:44:40.829Z,100097.48
2022-08-31T09:46:02.099Z,100088.98
2022-08-31T09:47:11.913Z,100101.90
2022-08-31T09:48:19.242Z,100093.41
2022-08-31T09:49:29.818Z,100089.13
2022-08-31T09:50:46.874Z,100094.64
2022-08-31T09:51:49.872Z,100091.31
2022-08-31T09:53:32.007Z,100086.36
2022-08-31T09:54:54.906Z,100096.83
2022-08-31T09:56:23.288Z,100078.94
2022-08-31T09:57:52.598Z,100083.02
2022-08-31T09:59:06.043Z,100075.94
2022-08-31T10:00:22.886Z,100072.45
2022-08-31T10:01:46.281Z,100080.50
2022-08-31T10:02:54.826Z,100084.73
2022-08-31T10:04:23.064Z,100078.63
2022-08-31T10:05:40.307Z,100082.88
2022-08-31T10:07:09.823Z,100083.41
2022-08-31T10:08:24.002Z,100078.16
2022-08-31T10:10:54.690Z,100088.33
2022-08-31T10:12:04.310Z,100085.89
2022-08-31T10:13:20.593Z,100087.20
2022-08-31T10:14:39.436Z,100083.74
2022-08-31T10:15:48.904Z,100080.44
2022-08-31T10:16:57.937Z,100083.76
2022-08-31T10:18:06.497Z,100084.73
2022-08-31T10:19:13.830Z,100084.82
2022-08-31T10:20:20.679Z,100095.63
2022-08-31T10:22:51.249Z,100082.58
2022-08-31T10:24:05.792Z,100088.19
2022-08-31T10:25:33.466Z,100089.58
2022-08-31T10:26:48.626Z,100081.59
2022-08-31T10:28:09.638Z,100084.70
2022-08-31T10:29:24.963Z,100092.65
2022-08-31T10:30:41.076Z,100093.88
2022-08-31T10:31:48.587Z,100080.64
2022-08-31T10:32:57.800Z,100092.23
2022-08-31T10:34:27.023Z,100079.91
2022-08-31T10:35:50.847Z,100084.30
2022-08-31T10:38:23.804Z,100083.61
2022-08-31T10:39:46.178Z,100092.53
2022-08-31T10:40:54.175Z,100087.33
2022-08-31T10:41:58.759Z,100083.54
2022-08-31T10:43:15.981Z,100083.38
2022-08-31T10:44:40.262Z,100080.11
2022-08-31T10:45:49.916Z,100079.70
2022-08-31T10:46:59.138Z,100069.64
2022-08-31T10:48:03.598Z,100069.40
2022-08-31T10:49:06.693Z,100070.53
2022-08-31T10:50:17.700Z,100060.63
2022-08-31T10:51:29.794Z,100060.96
2022-08-31T10:52:38.437Z,100053.08
2022-08-31T10:53:53.808Z,100056.50
2022-08-31T10:56:46.265Z,100051.95
2022-08-31T10:57:57.040Z,100054.69
2022-08-31T10:59:10.483Z,100060.39
2022-08-31T11:00:40.071Z,100052.08
2022-08-31T11:01:47.046Z,100058.64
2022-08-31T11:03:09.070Z,100056.64
2022-08-31T11:04:39.426Z,100059.62
2022-08-31T11:05:50.928Z,100055.83
2022-08-31T11:07:28.697Z,100051.25
2022-08-31T11:08:55.022Z,100055.51
2022-08-31T11:10:30.237Z,100054.52
2022-08-31T11:11:43.886Z,100060.36
2022-08-31T11:12:47.169Z,100054.30
2022-08-31T11:14:28.268Z,100059.95
2022-08-31T11:15:47.499Z,100059.97
2022-08-31T11:17:12.374Z,100052.78
2022-08-31T11:20:01.388Z,100056.08
2022-08-31T11:21:27.031Z,100056.17
2022-08-31T11:22:40.557Z,100057.05
2022-08-31T11:23:50.171Z,100050.36
2022-08-31T11:25:26.985Z,100043.37
2022-08-31T11:26:53.541Z,100043.00
2022-08-31T11:28:04.359Z,100043.75
2022-08-31T11:29:15.556Z,100044.33
2022-08-31T11:30:29.614Z,100048.95
2022-08-31T11:31:34.676Z,100048.69
2022-08-31T11:32:42.798Z,100041.28
2022-08-31T11:34:14.593Z,100038.33
2022-08-31T11:35:06.678Z,100036.70
2022-08-31T11:36:10.461Z,100039.57
2022-08-31T11:37:53.153Z,100027.80
2022-08-31T11:41:56.905Z,100036.92
2022-08-31T11:43:01.691Z,100040.24
2022-08-31T11:44:09.602Z,100035.49
2022-08-31T11:45:32.968Z,100046.61
2022-08-31T11:46:44.949Z,100045.77
2022-08-31T11:47:49.548Z,100037.42
2022-08-31T11:48:58.818Z,100041.30
2022-08-31T11:50:07.767Z,100045.30
2022-08-31T11:51:17.943Z,100044.64
2022-08-31T11:52:35.003Z,100046.83
2022-08-31T11:53:43.762Z,100040.10
2022-08-31T11:54:51.329Z,100031.43
2022-08-31T11:56:00.110Z,100036.25
2022-08-31T11:57:06.860Z,100027.30
2022-08-31T11:58:20.117Z,100035.59
2022-08-31T11:59:26.696Z,100024.27
2022-08-31T12:00:57.157Z,100028.02
2022-08-31T12:02:24.534Z,100023.79
2022-08-31T12:04:56.822Z,100021.02
2022-08-31T12:06:00.528Z,100023.55
2022-08-31T12:07:05.828Z,100022.49
2022-08-31T12:08:12.757Z,100019.27
2022-08-31T12:09:25.468Z,100023.81
2022-08-31T12:10:35.813Z,100019.61
2022-08-31T12:11:58.124Z,100016.33
2022-08-31T12:13:20.788Z,100020.47
2022-08-31T12:14:51.699Z,100021.39
2022-08-31T12:16:13.346Z,100015.91
2022-08-31T12:17:22.797Z,100020.75
2022-08-31T12:18:33.035Z,100018.92
2022-08-31T12:20:08.818Z,100023.16
2022-08-31T12:21:46.129Z,100020.17
2022-08-31T12:23:35.115Z,100028.13
2022-08-31T12:25:17.450Z,100033.80
2022-08-31T12:26:28.766Z,100029.41
2022-08-31T12:27:57.084Z,100022.70
2022-08-31T12:29:17.650Z,100030.03
2022-08-31T12:30:26.407Z,100027.68
2022-08-31T12:31:29.492Z,100027.68
2022-08-31T12:32:37.929Z,100017.66
2022-08-31T12:34:03.068Z,100026.10
2022-08-31T12:35:25.067Z,100032.46
2022-08-31T12:36:31.784Z,100024.03
2022-08-31T12:37:45.443Z,100003.52
2022-08-31T12:38:53.207Z,100021.89
2022-08-31T12:40:18.935Z,100012.42
2022-08-31T12:41:25.519Z,100011.98
2022-08-31T12:42:32.029Z,100019.03
2022-08-31T12:43:45.278Z,100011.38
2022-08-31T12:44:52.717Z,100010.66
2022-08-31T12:46:05.636Z,100020.12
2022-08-31T12:47:28.952Z,100025.73
2022-08-31T12:48:59.020Z,100021.06
2022-08-31T12:50:11.028Z,100022.01
2022-08-31T12:51:39.395Z,100015.99
2022-08-31T12:53:03.684Z,100015.28
2022-08-31T12:54:25.665Z,100023.53
2022-08-31T12:55:39.156Z,100016.16
2022-08-31T12:57:01.247Z,100019.42
2022-08-31T13:00:01.015Z,100020.56
2022-08-31T13:01:17.882Z,100022.42
2022-08-31T13:02:22.408Z,100014.95
2022-08-31T13:03:28.795Z,100016.74
2022-08-31T13:04:32.259Z,100018.33
2022-08-31T13:05:39.013Z,100020.09
2022-08-31T13:06:46.434Z,100022.38
2022-08-31T13:09:07.570Z,100024.91
2022-08-31T13:10:15.397Z,100022.84
2022-08-31T13:11:40.773Z,100029.02
2022-08-31T13:12:54.858Z,100026.46
2022-08-31T13:14:12.286Z,100032.29
2022-08-31T13:15:39.130Z,100030.89
2022-08-31T13:16:51.333Z,100022.22
2022-08-31T13:17:57.269Z,100029.63
2022-08-31T13:19:07.046Z,100026.46
2022-08-31T13:20:15.212Z,100030.69
2022-08-31T13:21:23.166Z,100023.16
2022-08-31T13:22:32.887Z,100036.80
2022-08-31T13:23:39.742Z,100034.02
2022-08-31T13:24:53.503Z,100037.92
2022-08-31T13:26:23.139Z,100035.97
2022-08-31T13:27:28.918Z,100028.52
2022-08-31T13:28:33.584Z,100041.30
2022-08-31T13:49:29.567Z,100035.39
2022-08-31T13:50:48.833Z,100035.39
2022-08-31T13:51:55.531Z,100038.52
2022-08-31T13:53:26.493Z,100039.08
2022-08-31T13:54:12.805Z,100037.63
2022-08-31T13:55:37.192Z,100033.81
2022-08-31T13:56:56.990Z,100041.41
2022-08-31T13:58:03.933Z,100042.03
2022-08-31T13:59:35.094Z,100044.35
2022-08-31T14:00:41.795Z,100039.73
2022-08-31T14:01:50.913Z,100041.58
2022-08-31T14:03:00.431Z,100043.59
2022-08-31T14:04:03.863Z,100040.44
2022-08-31T14:05:14.356Z,100042.42
2022-08-31T14:06:25.110Z,100041.80
2022-08-31T14:08:59.460Z,100044.13
2022-08-31T14:10:11.359Z,100043.08
2022-08-31T14:11:16.440Z,100041.15
2022-08-31T14:12:25.281Z,100044.09
2022-08-31T14:13:30.801Z,100035.54
2022-08-31T14:14:44.068Z,100032.20
2022-08-31T14:15:56.608Z,100032.20
2022-08-31T14:17:03.554Z,100028.62
2022-08-31T14:18:25.686Z,100036.33
2022-08-31T14:19:39.578Z,100036.96
2022-08-31T14:21:03.956Z,100034.80
2022-08-31T14:21:56.641Z,100038.06
2022-08-31T14:23:01.721Z,100031.77
2022-08-31T14:24:09.453Z,100034.53
2022-08-31T14:25:12.755Z,100028.45
2022-08-31T14:26:22.997Z,100036.45
2022-08-31T14:27:26.874Z,100034.16
2022-08-31T14:28:43.903Z,100034.73
2022-08-31T14:29:50.604Z,100042.05
2022-08-31T14:30:55.486Z,100033.30
2022-08-31T14:31:59.909Z,100033.30
2022-08-31T14:33:04.242Z,100031.41
2022-08-31T14:34:24.289Z,100042.52
2022-08-31T14:35:28.543Z,100036.87
2022-08-31T14:36:36.394Z,100039.59
2022-08-31T14:37:43.128Z,100048.81
2022-08-31T14:38:48.043Z,100050.28
2022-08-31T14:40:04.174Z,100046.91
2022-08-31T14:41:10.382Z,100043.36
2022-08-31T14:42:25.578Z,100034.98
2022-08-31T14:43:30.411Z,100042.30
2022-08-31T14:44:47.438Z,100041.65
2022-08-31T14:45:58.377Z,100046.05
2022-08-31T14:47:01.773Z,100034.31
2022-08-31T14:48:08.318Z,100029.49
2022-08-31T14:49:13.065Z,100036.61
2022-08-31T14:50:20.841Z,100034.54
2022-08-31T14:51:27.582Z,100033.25
2022-08-31T14:52:38.046Z,100031.38
2022-08-31T14:53:43.719Z,100036.83
2022-08-31T14:54:48.598Z,100026.37
2022-08-31T14:55:55.405Z,100028.91
2022-08-31T14:57:01.070Z,100022.85
2022-08-31T14:58:09.447Z,100029.31
2022-08-31T14:59:22.290Z,100021.77